createdAt,value
2023-02-13T00:00:52.546Z,102815.09
2023-02-13T00:03:18.951Z,102828.47
2023-02-13T00:05:45.294Z,102814.91
2023-02-13T00:08:11.601Z,102826.78
2023-02-13T00:10:37.945Z,102815.72
2023-02-13T00:13:04.273Z,102824.84
2023-02-13T00:15:30.761Z,102819.44
2023-02-13T00:17:57.143Z,102816.13
2023-02-13T00:20:23.745Z,102818.91
2023-02-13T00:22:50.101Z,102818.53
2023-02-13T00:25:16.488Z,102822.81
2023-02-13T00:27:42.959Z,102821.56
2023-02-13T00:30:09.721Z,102821.63
2023-02-13T00:32:36.050Z,102812.44
2023-02-13T00:35:02.439Z,102824.06
2023-02-13T00:37:28.744Z,102816.00
2023-02-13T00:39:55.033Z,102815.19
2023-02-13T00:42:21.360Z,102818.97
2023-02-13T00:44:47.649Z,102811.28
2023-02-13T00:47:13.954Z,102811.91
2023-02-13T00:49:40.760Z,102812.34
2023-02-13T00:52:07.199Z,102810.94
2023-02-13T00:54:33.495Z,102812.56
2023-02-13T00:56:59.803Z,102809.00
2023-02-13T00:59:26.097Z,102816.72
2023-02-13T01:01:52.461Z,102819.19
2023-02-13T01:04:18.788Z,102811.53
2023-02-13T01:06:45.105Z,102812.38
2023-02-13T01:09:11.762Z,102810.69
2023-02-13T01:11:38.118Z,102813.78
2023-02-13T01:14:04.436Z,102815.41
2023-02-13T01:16:30.793Z,102811.44
2023-02-13T01:18:57.090Z,102809.22
2023-02-13T01:21:23.393Z,102817.97
2023-02-13T01:23:50.229Z,102809.25
2023-02-13T01:26:19.680Z,102813.41
2023-02-13T01:28:46.386Z,102803.41
2023-02-13T01:31:12.985Z,102798.88
2023-02-13T01:33:39.410Z,102798.06
2023-02-13T01:36:10.294Z,102801.34
2023-02-13T01:38:36.610Z,102798.03
2023-02-13T01:41:03.046Z,102794.88
2023-02-13T01:43:45.852Z,102794.72
2023-02-13T01:46:15.109Z,102791.84
2023-02-13T01:48:41.889Z,102793.09
2023-02-13T01:51:13.097Z,102793.47
2023-02-13T01:53:47.906Z,102793.91
2023-02-13T01:56:17.828Z,102793.53
2023-02-13T01:58:47.634Z,102793.72
2023-02-13T02:01:13.970Z,102785.63
2023-02-13T02:03:53.704Z,102788.16
2023-02-13T02:06:31.187Z,102785.81
2023-02-13T02:09:01.667Z,102789.16
2023-02-13T02:11:37.582Z,102788.50
2023-02-13T02:14:04.228Z,102783.09
2023-02-13T02:16:31.350Z,102782.69
2023-02-13T02:18:57.795Z,102781.38
2023-02-13T02:21:45.026Z,102771.41
2023-02-13T02:24:48.619Z,102777.00
2023-02-13T02:27:53.407Z,102776.41
2023-02-13T02:30:44.391Z,102776.19
2023-02-13T02:33:23.264Z,102762.47
2023-02-13T02:36:08.042Z,102773.72
2023-02-13T02:38:51.594Z,102776.81
2023-02-13T02:41:49.119Z,102770.19
2023-02-13T02:44:21.668Z,102769.81
2023-02-13T02:47:07.658Z,102770.84
2023-02-13T02:49:38.125Z,102763.78
2023-02-13T02:52:20.010Z,102751.09
2023-02-13T02:55:02.466Z,102754.91
2023-02-13T02:57:31.723Z,102761.09
2023-02-13T02:59:59.237Z,102754.44
2023-02-13T03:02:26.501Z,102755.44
2023-02-13T03:04:55.778Z,102752.13
2023-02-13T03:07:22.072Z,102748.97
2023-02-13T03:09:56.574Z,102741.06
2023-02-13T03:12:26.903Z,102739.00
2023-02-13T03:14:53.469Z,102743.44
2023-02-13T03:17:19.939Z,102740.31
2023-02-13T03:20:01.257Z,102738.28
2023-02-13T03:22:36.704Z,102736.78
2023-02-13T03:25:18.194Z,102730.16
2023-02-13T03:28:05.457Z,102730.34
2023-02-13T03:30:54.459Z,102729.50
2023-02-13T03:33:51.591Z,102732.63
2023-02-13T03:36:33.718Z,102734.94
2023-02-13T03:39:12.335Z,102741.16
2023-02-13T03:41:44.783Z,102745.31
2023-02-13T03:44:13.569Z,102739.47
2023-02-13T03:46:44.088Z,102746.13
2023-02-13T03:49:18.029Z,102744.44
2023-02-13T03:52:07.420Z,102739.91
2023-02-13T03:54:45.771Z,102740.34
2023-02-13T03:57:18.347Z,102748.69
2023-02-13T03:59:44.733Z,102740.53
2023-02-13T04:02:17.041Z,102741.16
2023-02-13T04:04:54.050Z,102744.28
2023-02-13T04:07:22.190Z,102747.41
2023-02-13T04:09:48.550Z,102752.41
2023-02-13T04:12:21.105Z,102754.50
2023-02-13T04:14:56.101Z,102762.00
2023-02-13T04:17:33.335Z,102755.78
2023-02-13T04:20:00.144Z,102757.25
2023-02-13T04:22:26.474Z,102764.25
2023-02-13T04:24:52.768Z,102760.91
2023-02-13T04:27:19.152Z,102760.28
2023-02-13T04:29:45.486Z,102756.53
2023-02-13T04:32:12.015Z,102761.16
2023-02-13T04:34:38.376Z,102755.56
2023-02-13T04:37:04.703Z,102761.81
2023-02-13T04:39:31.013Z,102748.94
2023-02-13T04:41:57.335Z,102755.38
2023-02-13T04:44:23.643Z,102758.63
2023-02-13T04:46:49.947Z,102749.53
2023-02-13T04:49:16.240Z,102749.69
2023-02-13T04:51:42.557Z,102749.16
2023-02-13T04:54:10.208Z,102751.38
2023-02-13T04:56:36.518Z,102750.16
2023-02-13T04:59:02.994Z,102742.03
2023-02-13T05:01:29.583Z,102739.16
2023-02-13T05:03:55.900Z,102744.56
2023-02-13T05:06:22.217Z,102743.56
2023-02-13T05:08:49.077Z,102735.50
2023-02-13T05:11:15.389Z,102735.09
2023-02-13T05:13:41.692Z,102740.44
2023-02-13T05:16:08.069Z,102739.22
2023-02-13T05:18:34.419Z,102742.34
2023-02-13T05:21:00.855Z,102734.25
2023-02-13T05:23:27.137Z,102742.34
2023-02-13T05:25:53.443Z,102745.22
2023-02-13T05:28:19.779Z,102744.81
2023-02-13T05:30:46.285Z,102744.59
2023-02-13T05:33:12.610Z,102745.22
2023-02-13T05:35:38.897Z,102743.16
2023-02-13T05:38:05.191Z,102753.75
2023-02-13T05:40:31.624Z,102760.41
2023-02-13T05:42:57.938Z,102748.31
2023-02-13T05:45:24.312Z,102759.53
2023-02-13T05:47:50.631Z,102759.75
2023-02-13T05:50:17.175Z,102757.03
2023-02-13T05:52:43.534Z,102757.88
2023-02-13T05:55:09.881Z,102759.13
2023-02-13T05:57:36.207Z,102765.53
2023-02-13T06:00:04.902Z,102767.81
2023-02-13T06:02:31.221Z,102763.63
2023-02-13T06:04:57.568Z,102766.16
2023-02-13T06:07:23.870Z,102760.56
2023-02-13T06:09:50.311Z,102767.88
2023-02-13T06:12:16.779Z,102767.44
2023-02-13T06:14:43.079Z,102769.31
2023-02-13T06:17:09.369Z,102774.91
2023-02-13T06:19:35.678Z,102777.03
2023-02-13T06:22:01.996Z,102774.75
2023-02-13T06:24:28.324Z,102777.44
2023-02-13T06:26:54.628Z,102784.06
2023-02-13T06:29:20.974Z,102782.44
2023-02-13T06:31:47.298Z,102777.88
2023-02-13T06:34:13.828Z,102783.66
2023-02-13T06:36:40.156Z,102784.91
2023-02-13T06:39:06.510Z,102789.03
2023-02-13T06:41:32.828Z,102786.56
2023-02-13T06:43:59.136Z,102794.22
2023-02-13T06:46:25.485Z,102793.22
2023-02-13T06:48:51.884Z,102789.47
2023-02-13T06:51:18.177Z,102798.63
2023-02-13T06:53:44.500Z,102800.47
2023-02-13T06:56:10.792Z,102802.97
2023-02-13T06:58:37.109Z,102799.47
2023-02-13T07:01:03.490Z,102793.66
2023-02-13T07:03:29.861Z,102796.31
2023-02-13T07:05:56.173Z,102799.66
2023-02-13T07:08:22.697Z,102794.91
2023-02-13T07:10:49.017Z,102800.28
2023-02-13T07:13:15.340Z,102796.13
2023-02-13T07:15:42.035Z,102806.06
2023-02-13T07:18:08.684Z,102803.59
2023-02-13T07:20:35.369Z,102801.47
2023-02-13T07:23:04.577Z,102811.44
2023-02-13T07:25:31.434Z,102809.38
2023-02-13T07:28:02.218Z,102812.50
2023-02-13T07:30:29.110Z,102806.22
2023-02-13T07:32:59.358Z,102810.16
2023-02-13T07:35:25.746Z,102816.78
2023-02-13T07:37:53.517Z,102815.06
2023-02-13T07:40:20.012Z,102818.44
2023-02-13T07:42:46.326Z,102807.69
2023-02-13T07:45:12.658Z,102808.53
2023-02-13T07:47:38.983Z,102814.31
2023-02-13T07:50:05.951Z,102809.94
2023-02-13T07:52:32.288Z,102812.44
2023-02-13T07:54:58.737Z,102819.69
2023-02-13T07:57:25.084Z,102813.00
2023-02-13T07:59:51.410Z,102822.16
2023-02-13T08:02:17.715Z,102817.53
2023-02-13T08:04:44.414Z,102814.66
2023-02-13T08:07:10.718Z,102822.09
2023-02-13T08:09:38.905Z,102818.38
2023-02-13T08:12:08.713Z,102822.53
2023-02-13T08:14:35.295Z,102814.22
2023-02-13T08:17:01.965Z,102824.66
2023-02-13T08:19:28.586Z,102824.00
2023-02-13T08:21:55.238Z,102814.66
2023-02-13T08:24:21.811Z,102814.44
2023-02-13T08:26:48.124Z,102808.56
2023-02-13T08:29:14.503Z,102820.00
2023-02-13T08:31:41.198Z,102814.19
2023-02-13T08:34:07.533Z,102811.25
2023-02-13T08:36:33.881Z,102815.34
2023-02-13T08:39:00.178Z,102813.69
2023-02-13T08:41:26.510Z,102818.66
2023-02-13T08:43:54.440Z,102816.56
2023-02-13T08:46:21.710Z,102808.56
2023-02-13T08:48:48.073Z,102813.72
2023-02-13T08:51:14.922Z,102817.06
2023-02-13T08:53:41.349Z,102810.16
2023-02-13T08:56:07.826Z,102813.59
2023-02-13T08:58:34.313Z,102816.31
2023-02-13T09:01:04.120Z,102823.97
2023-02-13T09:03:30.457Z,102823.09
2023-02-13T09:05:59.821Z,102820.41
2023-02-13T09:08:26.331Z,102823.41
2023-02-13T09:11:00.200Z,102815.78
2023-02-13T09:13:27.233Z,102814.34
2023-02-13T09:15:53.613Z,102824.44
2023-02-13T09:18:20.077Z,102821.56
2023-02-13T09:20:46.413Z,102826.06
2023-02-13T09:23:12.815Z,102825.47
2023-02-13T09:25:39.113Z,102825.72
2023-02-13T09:28:05.421Z,102822.38
2023-02-13T09:30:31.880Z,102821.53
2023-02-13T09:32:58.266Z,102816.91
2023-02-13T09:35:24.578Z,102825.63
2023-02-13T09:37:50.865Z,102827.44
2023-02-13T09:40:31.376Z,102820.38
2023-02-13T09:43:17.074Z,102827.81
2023-02-13T09:45:45.669Z,102821.94
2023-02-13T09:48:24.109Z,102824.94
2023-02-13T09:50:50.504Z,102827.59
2023-02-13T09:53:25.928Z,102832.28
2023-02-13T09:56:08.518Z,102829.91
2023-02-13T09:58:54.678Z,102831.19
2023-02-13T10:01:30.541Z,102835.03
2023-02-13T10:04:21.821Z,102833.53
2023-02-13T10:07:05.399Z,102836.66
2023-02-13T10:09:50.324Z,102836.66
2023-02-13T10:12:37.379Z,102824.56
2023-02-13T10:15:28.162Z,102821.00
2023-02-13T10:18:03.291Z,102826.06
2023-02-13T10:20:39.537Z,102827.56
2023-02-13T10:23:28.461Z,102828.78
2023-02-13T10:25:59.685Z,102826.59
2023-02-13T10:28:38.441Z,102826.50
2023-02-13T10:31:10.160Z,102817.81
2023-02-13T10:33:46.467Z,102820.03
2023-02-13T10:36:18.863Z,102829.59
2023-02-13T10:38:55.766Z,102824.19
2023-02-13T10:42:09.091Z,102824.50
2023-02-13T10:45:07.564Z,102832.44
2023-02-13T10:48:00.336Z,102826.53
2023-02-13T10:50:34.361Z,102825.75
2023-02-13T10:53:18.700Z,102832.91
2023-02-13T10:56:01.088Z,102821.19
2023-02-13T10:58:57.903Z,102818.75
2023-02-13T11:01:34.449Z,102818.66
2023-02-13T11:04:05.710Z,102816.91
2023-02-13T11:06:35.225Z,102813.91
2023-02-13T11:09:01.619Z,102815.69
2023-02-13T11:11:29.873Z,102813.97
2023-02-13T11:14:14.420Z,102808.56
2023-02-13T11:16:42.927Z,102810.38
2023-02-13T11:19:17.483Z,102802.47
2023-02-13T11:21:44.918Z,102805.09
2023-02-13T11:24:21.382Z,102802.94
2023-02-13T11:26:54.527Z,102795.41
2023-02-13T11:29:27.100Z,102792.09
2023-02-13T11:32:15.406Z,102793.38
2023-02-13T11:34:41.848Z,102794.72
2023-02-13T11:37:16.726Z,102788.66
2023-02-13T11:39:43.912Z,102795.75
2023-02-13T11:42:29.150Z,102784.22
2023-02-13T11:45:03.425Z,102791.72
2023-02-13T11:47:33.298Z,102792.28
2023-02-13T11:50:00.101Z,102785.25
2023-02-13T11:52:31.158Z,102782.34
2023-02-13T11:55:00.220Z,102790.69
2023-02-13T11:57:32.393Z,102783.03
2023-02-13T12:00:00.371Z,102790.97
2023-02-13T12:02:43.584Z,102788.34
2023-02-13T12:05:22.388Z,102789.72
2023-02-13T12:07:49.734Z,102780.31
2023-02-13T12:10:19.580Z,102777.88
2023-02-13T12:13:11.824Z,102777.22
2023-02-13T12:15:38.587Z,102767.25
2023-02-13T12:18:29.513Z,102769.22
2023-02-13T12:21:01.745Z,102760.94
2023-02-13T12:23:49.550Z,102762.25
2023-02-13T12:26:15.790Z,102757.66
2023-02-13T12:29:05.725Z,102754.84
2023-02-13T12:31:52.825Z,102748.00
2023-02-13T12:34:42.146Z,102749.06
2023-02-13T12:37:27.350Z,102747.41
2023-02-13T12:40:14.657Z,102750.94
2023-02-13T12:42:46.855Z,102746.13
2023-02-13T12:45:26.374Z,102736.06
2023-02-13T12:48:04.769Z,102738.19
2023-02-13T12:50:56.236Z,102738.78
2023-02-13T12:53:56.763Z,102728.41
2023-02-13T12:56:49.251Z,102728.25
2023-02-13T12:59:40.617Z,102720.88
2023-02-13T13:02:16.024Z,102710.06
2023-02-13T13:05:03.553Z,102704.38
2023-02-13T13:07:32.791Z,102699.94
2023-02-13T13:10:24.799Z,102698.94
2023-02-13T13:12:59.895Z,102695.91
2023-02-13T13:15:57.098Z,102695.38
2023-02-13T13:18:48.832Z,102699.38
2023-02-13T13:21:28.388Z,102693.97
2023-02-13T13:24:05.151Z,102695.03
2023-02-13T13:26:46.631Z,102691.13
2023-02-13T13:29:19.902Z,102686.47
2023-02-13T13:31:53.718Z,102696.31
2023-02-13T13:34:24.508Z,102689.16
2023-02-13T13:37:11.967Z,102687.50
2023-02-13T13:39:51.676Z,102680.81
2023-02-13T13:42:45.817Z,102678.66
2023-02-13T13:45:30.987Z,102680.81
2023-02-13T13:48:15.743Z,102684.69
2023-02-13T13:50:44.471Z,102678.00
2023-02-13T13:53:14.022Z,102675.91
2023-02-13T13:55:46.596Z,102680.06
2023-02-13T13:58:24.484Z,102678.25
2023-02-13T14:01:18.983Z,102670.56
2023-02-13T14:03:47.485Z,102670.47
2023-02-13T14:06:16.404Z,102670.91
2023-02-13T14:08:42.650Z,102667.28
2023-02-13T14:11:34.841Z,102660.31
2023-02-13T14:14:02.200Z,102656.63
2023-02-13T14:16:45.052Z,102658.66
2023-02-13T14:19:30.053Z,102654.81
2023-02-13T14:22:24.459Z,102658.50
2023-02-13T14:24:58.647Z,102651.50
2023-02-13T14:27:37.427Z,102657.22
2023-02-13T14:30:07.208Z,102650.88
2023-02-13T14:32:35.831Z,102651.22
2023-02-13T14:35:07.618Z,102650.88
2023-02-13T14:37:46.966Z,102653.09
2023-02-13T14:40:30.564Z,102652.75
2023-02-13T14:43:08.951Z,102651.31
2023-02-13T14:45:47.506Z,102651.50
2023-02-13T14:48:14.467Z,102654.25
2023-02-13T14:50:50.282Z,102656.81
2023-02-13T14:53:23.462Z,102652.22
2023-02-13T14:55:56.934Z,102657.13
2023-02-13T14:58:31.102Z,102653.50
2023-02-13T15:01:04.554Z,102643.94
2023-02-13T15:03:30.875Z,102643.22
2023-02-13T15:06:03.402Z,102638.81
2023-02-13T15:08:36.833Z,102641.13
2023-02-13T15:11:03.198Z,102643.31
2023-02-13T15:13:35.347Z,102637.59
2023-02-13T15:16:12.237Z,102635.28
2023-02-13T15:18:52.615Z,102632.78
2023-02-13T15:21:21.980Z,102633.78
2023-02-13T15:23:54.905Z,102629.03
2023-02-13T15:26:23.453Z,102628.75
2023-02-13T15:29:01.909Z,102638.59
2023-02-13T15:31:32.987Z,102635.97
2023-02-13T15:33:59.668Z,102635.81
2023-02-13T15:36:34.021Z,102632.19
2023-02-13T15:39:01.777Z,102627.69
2023-02-13T15:41:34.926Z,102635.69
2023-02-13T15:44:01.625Z,102630.41
2023-02-13T15:46:33.181Z,102632.03
2023-02-13T15:49:13.903Z,102627.69
2023-02-13T15:51:40.254Z,102619.88
2023-02-13T15:54:22.498Z,102620.09
2023-02-13T15:56:50.632Z,102617.53
2023-02-13T15:59:18.938Z,102618.66
2023-02-13T16:01:46.600Z,102613.66
2023-02-13T16:04:15.569Z,102620.47
2023-02-13T16:06:43.903Z,102614.16
2023-02-13T16:09:35.629Z,102613.97
2023-02-13T16:12:20.799Z,102614.25
2023-02-13T16:15:00.644Z,102617.78
2023-02-13T16:17:33.714Z,102616.41
2023-02-13T16:20:04.668Z,102623.94
2023-02-13T16:22:45.206Z,102616.09
2023-02-13T16:25:17.405Z,102613.25
2023-02-13T16:27:48.275Z,102610.94
2023-02-13T16:30:24.009Z,102614.09
2023-02-13T16:32:50.330Z,102609.00
2023-02-13T16:35:31.094Z,102611.06
2023-02-13T16:38:01.754Z,102610.94
2023-02-13T16:40:31.032Z,102615.47
2023-02-13T16:43:33.930Z,102615.13
2023-02-13T16:46:36.861Z,102617.78
2023-02-13T16:49:13.212Z,102627.16
2023-02-13T16:51:48.940Z,102626.34
2023-02-13T16:54:37.859Z,102626.59
2023-02-13T16:57:12.959Z,102630.78
2023-02-13T16:59:48.326Z,102621.84
2023-02-13T17:02:38.445Z,102623.97
2023-02-13T17:05:07.535Z,102637.44
2023-02-13T17:07:39.791Z,102631.66
2023-02-13T17:10:24.431Z,102637.25
2023-02-13T17:12:51.696Z,102640.59
2023-02-13T17:15:23.997Z,102643.72
2023-02-13T17:17:51.252Z,102644.31
2023-02-13T17:20:20.342Z,102649.53
2023-02-13T17:22:48.994Z,102645.59
2023-02-13T17:25:22.923Z,102653.25
2023-02-13T17:27:51.308Z,102653.69
2023-02-13T17:30:20.655Z,102650.59
2023-02-13T17:32:48.823Z,102650.56
2023-02-13T17:35:15.895Z,102656.41
2023-02-13T17:37:43.667Z,102650.22
2023-02-13T17:40:17.021Z,102650.22
2023-02-13T17:42:45.537Z,102647.09
2023-02-13T17:45:15.221Z,102641.50
2023-02-13T17:47:41.880Z,102642.34
2023-02-13T17:50:12.431Z,102642.56
2023-02-13T17:52:39.421Z,102636.53
2023-02-13T17:55:10.254Z,102633.25
2023-02-13T17:57:36.555Z,102638.41
2023-02-13T18:00:03.948Z,102631.94
2023-02-13T18:02:30.258Z,102632.34
2023-02-13T18:04:56.557Z,102634.44
2023-02-13T18:07:22.885Z,102629.03
2023-02-13T18:09:49.173Z,102626.97
2023-02-13T18:12:25.039Z,102624.03
2023-02-13T18:14:52.744Z,102630.25
2023-02-13T18:17:19.958Z,102629.38
2023-02-13T18:19:46.780Z,102635.63
2023-02-13T18:22:13.525Z,102634.31
2023-02-13T18:24:41.578Z,102630.59
2023-02-13T18:27:09.283Z,102638.88
2023-02-13T18:29:35.730Z,102635.97
2023-02-13T18:32:02.535Z,102637.59
2023-02-13T18:34:29.173Z,102637.38
2023-02-13T18:36:55.491Z,102625.22
2023-02-13T18:39:21.827Z,102631.41
2023-02-13T18:41:48.140Z,102624.09
2023-02-13T18:44:23.308Z,102629.41
2023-02-13T18:46:54.349Z,102636.25
2023-02-13T18:49:20.669Z,102635.75
2023-02-13T18:51:46.969Z,102631.78
2023-02-13T18:54:13.321Z,102634.25
2023-02-13T18:56:39.622Z,102634.84
2023-02-13T18:59:05.940Z,102637.88
2023-02-13T19:01:32.301Z,102629.97
2023-02-13T19:03:58.672Z,102625.69
2023-02-13T19:06:25.798Z,102627.34
2023-02-13T19:08:52.129Z,102622.56
2023-02-13T19:11:20.125Z,102628.13
2023-02-13T19:13:46.514Z,102631.03
2023-02-13T19:16:17.927Z,102632.91
2023-02-13T19:18:47.238Z,102635.34
2023-02-13T19:21:14.897Z,102635.34
2023-02-13T19:23:41.563Z,102631.16
2023-02-13T19:26:10.318Z,102633.00
2023-02-13T19:28:37.354Z,102633.38
2023-02-13T19:31:12.849Z,102630.22
2023-02-13T19:33:39.672Z,102625.84
2023-02-13T19:36:09.373Z,102626.66
2023-02-13T19:38:36.293Z,102625.91
2023-02-13T19:41:03.873Z,102627.31
2023-02-13T19:43:30.208Z,102627.47
2023-02-13T19:45:56.652Z,102636.50
2023-02-13T19:48:23.068Z,102629.66
2023-02-13T19:50:49.366Z,102629.59
2023-02-13T19:53:16.424Z,102633.31
2023-02-13T19:55:42.717Z,102623.19
2023-02-13T19:58:09.137Z,102630.75
2023-02-13T20:00:35.493Z,102626.97
2023-02-13T20:03:04.625Z,102634.66
2023-02-13T20:05:32.378Z,102626.47
2023-02-13T20:07:58.757Z,102630.63
2023-02-13T20:10:25.099Z,102628.97
2023-02-13T20:12:51.440Z,102619.06
2023-02-13T20:15:17.843Z,102626.00
2023-02-13T20:17:44.141Z,102614.91
2023-02-13T20:20:11.097Z,102622.28
2023-02-13T20:22:37.476Z,102625.72
2023-02-13T20:25:04.249Z,102621.78
2023-02-13T20:27:30.561Z,102630.25
2023-02-13T20:30:06.283Z,102612.13
2023-02-13T20:32:33.132Z,102626.00
2023-02-13T20:35:00.148Z,102625.81
2023-02-13T20:37:26.773Z,102625.56
2023-02-13T20:39:53.087Z,102620.56
2023-02-13T20:42:19.382Z,102624.09
2023-02-13T20:44:45.812Z,102627.78
2023-02-13T20:47:12.144Z,102624.66
2023-02-13T20:49:38.465Z,102621.06
2023-02-13T20:52:04.989Z,102610.44
2023-02-13T20:54:32.096Z,102611.41
2023-02-13T20:56:58.553Z,102612.75
2023-02-13T20:59:24.903Z,102620.56
2023-02-13T21:01:51.251Z,102607.28
2023-02-13T21:04:17.643Z,102614.84
2023-02-13T21:06:43.953Z,102608.22
2023-02-13T21:09:10.339Z,102612.38
2023-02-13T21:11:38.677Z,102603.03
2023-02-13T21:14:05.193Z,102613.84
2023-02-13T21:16:33.938Z,102624.84
2023-02-13T21:19:04.795Z,102612.16
2023-02-13T21:21:32.769Z,102622.25
2023-02-13T21:24:02.213Z,102602.41
2023-02-13T21:26:29.482Z,102608.59
2023-02-13T21:28:56.486Z,102613.28
2023-02-13T21:31:29.319Z,102610.50
2023-02-13T21:34:10.818Z,102614.75
2023-02-13T21:36:38.243Z,102614.41
2023-02-13T21:39:06.598Z,102610.44
2023-02-13T21:41:33.234Z,102617.91
2023-02-13T21:43:59.818Z,102619.91
2023-02-13T21:46:31.150Z,102613.66
2023-02-13T21:48:59.951Z,102613.06
2023-02-13T21:51:27.661Z,102611.06
2023-02-13T21:53:54.377Z,102615.50
2023-02-13T21:56:24.301Z,102620.41
2023-02-13T21:58:51.132Z,102613.00
2023-02-13T22:01:26.416Z,102628.44
2023-02-13T22:03:59.050Z,102618.91
2023-02-13T22:06:27.076Z,102615.28
2023-02-13T22:09:01.878Z,102614.25
2023-02-13T22:11:28.211Z,102619.22
2023-02-13T22:14:00.875Z,102618.38
2023-02-13T22:16:27.468Z,102619.38
2023-02-13T22:18:54.701Z,102623.25
2023-02-13T22:21:23.708Z,102621.06
2023-02-13T22:23:50.911Z,102627.25
2023-02-13T22:26:26.462Z,102613.38
2023-02-13T22:28:54.177Z,102619.00
2023-02-13T22:31:24.904Z,102621.78
2023-02-13T22:34:02.872Z,102617.44
2023-02-13T22:36:30.232Z,102628.16
2023-02-13T22:38:56.538Z,102620.56
2023-02-13T22:41:24.950Z,102623.91
2023-02-13T22:43:52.015Z,102620.56
2023-02-13T22:46:21.575Z,102622.16
2023-02-13T22:48:48.324Z,102620.13
2023-02-13T22:51:17.199Z,102621.97
2023-02-13T22:53:44.319Z,102626.13
2023-02-13T22:56:11.970Z,102617.16
2023-02-13T22:58:38.665Z,102614.09
2023-02-13T23:01:13.127Z,102614.84
2023-02-13T23:03:40.241Z,102619.38
2023-02-13T23:06:08.366Z,102614.00
2023-02-13T23:08:35.408Z,102613.03
2023-02-13T23:11:10.089Z,102614.56
2023-02-13T23:13:36.411Z,102611.78
2023-02-13T23:16:02.816Z,102622.78
2023-02-13T23:18:29.131Z,102619.91
2023-02-13T23:20:55.423Z,102615.22
2023-02-13T23:23:21.741Z,102621.69
2023-02-13T23:25:48.081Z,102611.75
2023-02-13T23:28:14.390Z,102604.72
2023-02-13T23:30:40.742Z,102604.72
2023-02-13T23:33:07.178Z,102613.88
2023-02-13T23:35:33.472Z,102617.47
2023-02-13T23:37:59.777Z,102612.25
2023-02-13T23:40:26.075Z,102611.78
2023-02-13T23:42:52.393Z,102621.09
2023-02-13T23:45:18.716Z,102614.09
2023-02-13T23:47:45.012Z,102612.44
2023-02-13T23:50:11.340Z,102611.78
2023-02-13T23:52:37.780Z,102616.53
2023-02-13T23:55:04.372Z,102620.09
2023-02-13T23:57:30.706Z,102613.38
2023-02-13T23:59:56.987Z,102614.44
